Time;durP1;ratioP1;P1;durP2;ratioP2;P2;SDS_P1;SDS_P2;PMS_P1;PMS_P2;Temp;Humidity;BMP_temperature;BMP_pressure;BME280_temperature;BME280_humidity;BME280_pressure;Samples;Min_cycle;Max_cycle;Signal;HPM_P1;HPM_P2
2022/06/15 00:01:49;;;;;;;4.32;1.15;;;;;;;13.78;65.01;100769.94;5062668;28;20389;-81
2022/06/15 00:04:15;;;;;;;2.05;0.80;;;;;;;13.80;65.05;100775.94;5068051;28;20036;-80
2022/06/15 00:06:42;;;;;;;8.25;1.10;;;;;;;13.80;65.22;100765.31;5048519;28;20438;-81
2022/06/15 00:09:08;;;;;;;1.20;0.70;;;;;;;13.79;65.25;100757.50;5066007;28;20093;-81
2022/06/15 00:11:41;;;;;;;2.45;1.13;;;;;;;13.76;65.60;100763.97;5033155;28;20171;-81
2022/06/15 00:14:14;;;;;;;2.80;0.90;;;;;;;13.72;65.63;100767.91;5047896;28;20531;-81
2022/06/15 00:16:40;;;;;;;4.07;0.93;;;;;;;13.71;65.52;100776.88;5066075;28;20033;-81
2022/06/15 00:19:07;;;;;;;3.72;0.93;;;;;;;13.72;65.76;100776.72;5064600;28;21230;-81
2022/06/15 00:21:33;;;;;;;2.38;1.17;;;;;;;13.74;65.79;100766.75;5049864;28;20102;-80
2022/06/15 00:23:59;;;;;;;2.28;0.90;;;;;;;13.75;65.85;100771.09;5065995;28;20024;-80
2022/06/15 00:26:25;;;;;;;2.78;0.90;;;;;;;13.77;65.71;100761.16;5070710;28;20043;-81
2022/06/15 00:28:52;;;;;;;2.70;1.05;;;;;;;13.75;65.86;100757.81;5068269;28;20037;-81
2022/06/15 00:31:19;;;;;;;2.22;0.98;;;;;;;13.74;65.86;100750.00;5050997;28;20045;-81
2022/06/15 00:33:45;;;;;;;3.35;1.48;;;;;;;13.71;66.01;100747.66;5064033;28;20111;-80
2022/06/15 00:36:14;;;;;;;2.92;1.40;;;;;;;13.71;66.07;100745.00;5051308;28;20128;-80
2022/06/15 00:38:44;;;;;;;4.22;1.20;;;;;;;13.68;66.12;100750.63;5070598;28;20043;-80
2022/06/15 00:41:16;;;;;;;2.65;1.30;;;;;;;13.68;66.01;100754.09;5053644;28;20046;-80
2022/06/15 00:43:57;;;;;;;2.15;1.13;;;;;;;13.66;66.01;100749.94;5072599;28;20051;-81
2022/06/15 00:46:42;;;;;;;2.25;1.20;;;;;;;13.65;66.07;100751.75;5049980;28;20028;-81
2022/06/15 00:49:24;;;;;;;3.55;1.05;;;;;;;13.57;66.00;100741.94;5084943;28;20064;-81
2022/06/15 00:52:14;;;;;;;4.25;1.30;;;;;;;13.54;66.17;100742.25;5088636;28;20039;-81
2022/06/15 00:54:42;;;;;;;3.72;1.38;;;;;;;13.52;66.55;100741.59;5083235;28;20099;-81
2022/06/15 00:57:08;;;;;;;2.58;1.23;;;;;;;13.51;66.40;100743.41;5067123;28;20497;-80
2022/06/15 00:59:56;;;;;;;4.05;1.33;;;;;;;13.46;66.28;100748.31;5072330;28;20043;-80
2022/06/15 01:02:23;;;;;;;2.00;1.08;;;;;;;13.45;66.63;100744.00;5083949;28;20044;-80
2022/06/15 01:04:58;;;;;;;3.70;1.20;;;;;;;13.46;66.53;100743.00;5055844;28;20488;-80
2022/06/15 01:07:29;;;;;;;1.42;1.27;;;;;;;13.45;66.60;100744.00;5060898;28;20041;-81
2022/06/15 01:10:16;;;;;;;3.83;1.48;;;;;;;13.39;66.47;100741.97;5067155;28;20046;-81
2022/06/15 01:12:54;;;;;;;3.25;1.50;;;;;;;13.36;66.57;100740.44;5066598;28;20460;-80
2022/06/15 01:15:42;;;;;;;2.70;1.33;;;;;;;13.34;66.76;100744.25;5080488;28;20040;-81
2022/06/15 01:18:33;;;;;;;3.30;1.17;;;;;;;13.34;66.88;100742.44;5068401;28;20020;-80
2022/06/15 01:21:39;;;;;;;3.45;1.55;;;;;;;13.28;66.96;100735.09;5054199;28;20032;-80
2022/06/15 01:24:17;;;;;;;1.60;1.20;;;;;;;13.27;66.82;100738.72;5068266;28;20148;-81
2022/06/15 01:26:49;;;;;;;5.97;1.30;;;;;;;13.25;67.17;100738.06;5062262;28;20041;-80
2022/06/15 01:29:36;;;;;;;2.95;1.30;;;;;;;13.28;67.12;100738.56;5067044;28;20385;-81
2022/06/15 01:32:13;;;;;;;1.60;1.23;;;;;;;13.27;67.06;100736.91;5051740;28;20676;-81
2022/06/15 01:34:48;;;;;;;7.13;1.67;;;;;;;13.27;67.07;100728.09;5054621;28;20047;-81
2022/06/15 01:37:58;;;;;;;3.92;1.20;;;;;;;13.26;67.01;100732.59;5037247;28;20548;-80
2022/06/15 01:40:34;;;;;;;5.63;1.20;;;;;;;13.22;67.32;100731.22;5066951;28;20036;-80
2022/06/15 01:43:03;;;;;;;;;;;;;;;13.10;67.41;100738.59;5064155;28;20037;-80
2022/06/15 01:45:34;;;;;;;2.15;1.20;;;;;;;13.16;67.55;100723.88;5049128;28;19917;-80
2022/06/15 01:48:04;;;;;;;5.00;1.42;;;;;;;13.18;67.39;100735.19;5031992;28;20078;-80
2022/06/15 01:50:37;;;;;;;6.75;1.45;;;;;;;13.17;67.35;100732.69;5070544;28;20032;-80
2022/06/15 01:53:26;;;;;;;2.92;1.30;;;;;;;13.08;67.81;100737.91;5053193;28;20028;-81
2022/06/15 01:56:14;;;;;;;1.92;1.13;;;;;;;13.00;67.94;100737.84;5080595;28;20037;-81
2022/06/15 01:58:45;;;;;;;3.20;1.40;;;;;;;12.93;67.82;100732.34;5045463;28;20152;-80
2022/06/15 02:01:45;;;;;;;2.40;1.25;;;;;;;12.88;68.03;100738.06;5048973;28;20111;-81
2022/06/15 02:04:24;;;;;;;6.75;1.55;;;;;;;12.88;68.31;100742.56;5024148;28;20475;-81
2022/06/15 02:06:56;;;;;;;4.68;1.20;;;;;;;12.86;68.22;100729.44;5048017;28;20162;-81
2022/06/15 02:09:43;;;;;;;5.45;1.55;;;;;;;12.84;68.25;100733.22;5068951;28;20036;-81
2022/06/15 02:12:13;;;;;;;2.30;1.40;;;;;;;12.73;68.54;100735.13;5053075;28;20028;-81
2022/06/15 02:14:51;;;;;;;2.85;1.30;;;;;;;12.70;68.40;100740.75;5067001;28;20077;-81
2022/06/15 02:17:27;;;;;;;1.50;1.27;;;;;;;12.68;68.61;100737.41;5053296;28;20024;-80
2022/06/15 02:20:00;;;;;;;5.53;1.33;;;;;;;12.65;68.81;100743.84;5048188;28;20028;-80
2022/06/15 02:22:30;;;;;;;1.80;1.40;;;;;;;12.61;68.98;100741.66;5041554;28;20036;-81
2022/06/15 02:24:58;;;;;;;2.15;1.50;;;;;;;12.58;69.13;100745.41;5037869;28;20024;-80
2022/06/15 02:27:26;;;;;;;1.83;1.52;;;;;;;12.55;69.00;100743.06;5069982;28;20082;-80
2022/06/15 02:29:59;;;;;;;3.67;1.60;;;;;;;12.51;69.19;100747.84;5054436;28;20028;-81
2022/06/15 02:32:25;;;;;;;9.18;2.50;;;;;;;12.47;69.27;100746.47;5069798;28;20542;-80
2022/06/15 02:34:51;;;;;;;2.35;1.40;;;;;;;12.43;69.30;100738.97;5070764;28;20476;-80
2022/06/15 02:37:17;;;;;;;4.32;1.77;;;;;;;12.40;69.28;100738.28;5048938;28;20055;-80
2022/06/15 02:39:43;;;;;;;7.22;2.45;;;;;;;12.35;69.38;100731.75;5048543;28;20036;-80
2022/06/15 02:42:34;;;;;;;4.63;2.20;;;;;;;12.28;69.23;100728.84;5075899;28;20036;-81
2022/06/15 02:45:21;;;;;;;4.10;2.45;;;;;;;12.21;69.56;100731.28;5048013;28;20051;-80
2022/06/15 02:47:50;;;;;;;3.97;1.90;;;;;;;12.18;69.54;100728.09;5070410;28;20036;-80
2022/06/15 02:50:20;;;;;;;3.88;2.13;;;;;;;12.11;69.83;100719.88;5069612;28;20070;-81
2022/06/15 02:52:59;;;;;;;2.83;2.05;;;;;;;12.09;69.44;100725.34;5067944;28;20029;-80
2022/06/15 02:55:26;;;;;;;2.50;1.58;;;;;;;12.04;69.58;100722.25;5061659;28;20029;-81
2022/06/15 02:58:02;;;;;;;2.53;1.80;;;;;;;11.98;69.73;100718.38;5047546;28;20131;-81
2022/06/15 03:00:33;;;;;;;2.80;2.15;;;;;;;11.95;69.65;100720.50;5047253;28;20036;-81
2022/06/15 03:02:59;;;;;;;6.45;2.40;;;;;;;11.91;69.83;100723.44;5066487;28;20036;-81
2022/06/15 03:05:25;;;;;;;4.20;1.95;;;;;;;11.90;70.36;100729.72;5070042;28;20078;-80
2022/06/15 03:07:51;;;;;;;7.13;3.53;;;;;;;11.89;70.13;100733.38;5036803;28;20496;-81
2022/06/15 03:10:17;;;;;;;3.53;1.80;;;;;;;11.85;69.95;100737.25;5053686;28;20032;-81
2022/06/15 03:12:43;;;;;;;4.45;1.80;;;;;;;11.76;70.14;100733.69;5053581;28;20046;-81
2022/06/15 03:15:10;;;;;;;3.63;2.00;;;;;;;11.70;70.27;100736.91;5070533;28;20495;-80
2022/06/15 03:17:36;;;;;;;4.07;1.23;;;;;;;11.66;70.24;100739.00;5065937;28;20040;-80
2022/06/15 03:20:06;;;;;;;5.38;1.60;;;;;;;11.64;70.60;100742.78;5063147;28;20051;-81
2022/06/15 03:22:34;;;;;;;4.85;1.67;;;;;;;11.64;70.72;100743.59;5054168;28;20028;-80
2022/06/15 03:25:02;;;;;;;5.40;2.13;;;;;;;11.66;70.40;100738.16;5071286;28;20107;-81
2022/06/15 03:27:30;;;;;;;3.40;1.65;;;;;;;11.61;70.50;100746.53;5036300;28;20028;-80
2022/06/15 03:29:58;;;;;;;2.67;1.45;;;;;;;11.53;70.45;100739.31;5054313;28;20485;-80
2022/06/15 03:32:26;;;;;;;7.32;2.08;;;;;;;11.52;70.75;100742.09;5038254;28;20127;-80
2022/06/15 03:34:58;;;;;;;4.97;1.98;;;;;;;11.50;70.52;100736.13;5055301;28;20068;-81
2022/06/15 03:37:25;;;;;;;3.35;1.63;;;;;;;11.47;70.84;100734.59;5060921;28;20048;-80
2022/06/15 03:39:57;;;;;;;2.88;1.52;;;;;;;11.48;70.57;100733.59;5037882;28;20057;-80
2022/06/15 03:42:26;;;;;;;2.78;1.48;;;;;;;11.45;70.74;100727.78;5070953;28;20036;-80
2022/06/15 03:44:54;;;;;;;5.13;2.00;;;;;;;11.43;70.58;100727.94;5047982;28;20029;-80
2022/06/15 03:47:24;;;;;;;5.10;2.05;;;;;;;11.39;70.58;100718.59;5054356;28;20032;-80
2022/06/15 03:49:52;;;;;;;3.17;2.10;;;;;;;11.37;70.40;100716.09;5053832;28;20075;-80
2022/06/15 03:52:21;;;;;;;2.88;1.50;;;;;;;11.35;70.42;100714.56;5071105;28;20031;-81
2022/06/15 03:54:47;;;;;;;9.52;2.08;;;;;;;11.32;70.68;100722.78;5087359;28;20029;-80
2022/06/15 03:57:15;;;;;;;8.73;2.00;;;;;;;11.22;70.57;100728.09;5071960;28;20036;-80
2022/06/15 03:59:42;;;;;;;2.17;1.35;;;;;;;11.19;70.81;100718.66;5037298;28;20033;-80
2022/06/15 04:02:47;;;;;;;3.03;1.70;;;;;;;11.13;70.62;100721.84;5009071;28;20080;-80
2022/06/15 04:05:27;;;;;;;3.13;1.33;;;;;;;11.04;70.65;100729.66;5010752;28;20073;-80
2022/06/15 04:10:38;;;;;;;4.60;1.98;;;;;;;11.08;70.73;100726.72;5062418;28;20033;-81
2022/06/15 04:13:07;;;;;;;2.55;1.38;;;;;;;11.11;70.44;100735.22;5067696;28;20037;-81
2022/06/15 04:15:34;;;;;;;3.05;2.30;;;;;;;11.06;70.29;100744.53;5080006;28;20033;-80
2022/06/15 04:18:01;;;;;;;2.47;1.92;;;;;;;11.01;70.34;100735.22;5058108;28;20029;-80
2022/06/15 04:20:41;;;;;;;6.68;1.73;;;;;;;10.98;70.29;100739.94;5069727;28;20435;-80
2022/06/15 04:23:33;;;;;;;3.63;1.92;;;;;;;10.94;70.24;100736.75;5066486;28;20032;-80
2022/06/15 04:26:03;;;;;;;4.03;1.90;;;;;;;10.91;70.38;100737.88;5041980;28;20040;-80
2022/06/15 04:28:38;;;;;;;4.47;1.70;;;;;;;10.91;70.63;100737.88;5053221;28;20526;-81
2022/06/15 04:31:12;;;;;;;5.70;1.75;;;;;;;10.85;70.83;100733.13;5055560;28;20511;-81
2022/06/15 04:33:39;;;;;;;2.50;1.88;;;;;;;10.82;70.79;100730.78;5069690;28;20029;-80
2022/06/15 04:36:07;;;;;;;3.58;1.55;;;;;;;10.75;70.86;100734.97;5071071;28;20036;-81
2022/06/15 04:38:34;;;;;;;1.98;1.52;;;;;;;10.71;71.10;100737.03;5072399;28;20036;-80
2022/06/15 04:41:06;;;;;;;3.15;1.55;;;;;;;10.69;71.10;100732.88;5068096;28;20037;-80
2022/06/15 04:43:32;;;;;;;1.65;1.55;;;;;;;10.68;71.02;100729.38;5067813;28;20025;-81
2022/06/15 04:45:58;;;;;;;2.47;1.67;;;;;;;10.70;71.21;100739.81;5064203;28;20032;-80
2022/06/15 04:48:26;;;;;;;1.60;1.50;;;;;;;10.74;71.06;100735.91;5070542;28;20029;-80
2022/06/15 04:50:53;;;;;;;5.90;1.63;;;;;;;10.78;71.02;100735.50;5046019;28;20043;-80
2022/06/15 04:53:21;;;;;;;3.88;1.25;;;;;;;10.76;71.00;100737.47;5056406;28;20029;-80
2022/06/15 04:55:51;;;;;;;8.57;1.50;;;;;;;10.73;71.20;100748.31;5050972;28;20036;-81
2022/06/15 04:58:17;;;;;;;3.40;1.52;;;;;;;10.74;71.00;100738.56;5072759;28;20104;-81
2022/06/15 05:00:46;;;;;;;2.05;1.75;;;;;;;10.72;71.34;100741.34;5069809;28;20025;-80
2022/06/15 05:03:14;;;;;;;3.05;1.65;;;;;;;10.78;71.89;100742.59;5068524;28;20036;-81
2022/06/15 05:05:42;;;;;;;2.38;1.77;;;;;;;10.82;71.98;100743.16;5034772;28;20397;-80
2022/06/15 05:08:08;;;;;;;3.25;2.28;;;;;;;10.85;72.12;100742.88;5069852;28;20028;-80
2022/06/15 05:10:34;;;;;;;4.28;1.77;;;;;;;10.93;72.47;100748.31;5068672;28;20037;-80
2022/06/15 05:13:02;;;;;;;2.33;2.00;;;;;;;10.99;72.52;100752.22;5051635;28;20048;-81
2022/06/15 05:15:29;;;;;;;2.88;2.00;;;;;;;11.02;72.50;100747.47;5030712;28;20094;-80
2022/06/15 05:18:04;;;;;;;4.32;2.08;;;;;;;11.06;72.73;100748.03;5048918;28;20550;-80
2022/06/15 05:20:35;;;;;;;2.78;1.40;;;;;;;11.06;72.77;100736.59;5070983;28;20036;-80
2022/06/15 05:23:02;;;;;;;3.83;1.90;;;;;;;11.07;73.34;100747.03;5089059;28;20040;-81
2022/06/15 05:25:48;;;;;;;6.25;2.00;;;;;;;11.13;73.35;100750.97;5052874;28;20041;-81
2022/06/15 05:28:16;;;;;;;4.00;2.03;;;;;;;11.24;73.33;100750.81;5043343;28;20036;-80
2022/06/15 05:30:42;;;;;;;3.35;1.77;;;;;;;11.32;73.07;100751.91;5053878;28;20113;-80
2022/06/15 05:33:11;;;;;;;4.13;1.88;;;;;;;11.40;73.36;100749.41;5054609;28;20032;-81
2022/06/15 05:35:38;;;;;;;2.03;1.40;;;;;;;11.51;73.20;100758.97;5054776;28;20036;-80
2022/06/15 05:38:04;;;;;;;6.70;2.30;;;;;;;11.58;73.17;100759.25;5059542;28;20060;-80
2022/06/15 05:40:30;;;;;;;6.45;1.90;;;;;;;11.62;73.03;100755.31;5070445;28;20484;-80
2022/06/15 05:42:56;;;;;;;8.05;2.35;;;;;;;11.69;73.28;100759.06;5054123;28;20032;-80
2022/06/15 05:45:24;;;;;;;2.92;2.10;;;;;;;11.71;73.21;100762.41;5066435;28;20032;-80
2022/06/15 05:47:51;;;;;;;3.42;2.35;;;;;;;11.76;73.32;100767.28;5049376;28;20375;-81
2022/06/15 05:50:26;;;;;;;3.58;2.20;;;;;;;11.75;73.35;100761.13;5055860;28;20126;-80
2022/06/15 05:53:02;;;;;;;3.75;2.35;;;;;;;11.75;73.68;100758.47;5066391;28;20052;-81
2022/06/15 05:55:28;;;;;;;6.05;2.20;;;;;;;11.78;73.65;100755.53;5071172;28;20481;-81
2022/06/15 05:57:54;;;;;;;4.15;2.10;;;;;;;11.86;73.55;100761.94;5071441;28;20440;-81
2022/06/15 06:00:21;;;;;;;3.33;1.77;;;;;;;11.94;73.36;100751.47;5034724;28;20123;-80
2022/06/15 06:02:46;;;;;;;4.35;2.03;;;;;;;12.03;73.35;100761.19;5085658;28;20031;-82
2022/06/15 06:05:12;;;;;;;2.40;2.00;;;;;;;12.13;73.33;100762.97;5054607;28;20072;-80
2022/06/15 06:07:38;;;;;;;3.15;2.17;;;;;;;12.24;73.13;100762.78;5069140;28;20028;-80
2022/06/15 06:10:04;;;;;;;5.10;2.50;;;;;;;12.35;73.08;100760.91;5036998;28;20044;-81
2022/06/15 06:12:30;;;;;;;3.50;2.30;;;;;;;12.40;73.30;100759.50;5071992;28;20029;-81
2022/06/15 06:14:56;;;;;;;4.00;2.15;;;;;;;12.47;73.26;100762.38;5068330;28;20481;-81
2022/06/15 06:17:22;;;;;;;4.43;2.25;;;;;;;12.51;73.18;100765.56;5072152;28;20037;-80
2022/06/15 06:19:48;;;;;;;4.03;2.80;;;;;;;12.55;73.19;100763.47;5067867;28;20028;-80
2022/06/15 06:22:14;;;;;;;3.28;2.40;;;;;;;12.62;73.03;100762.72;5068470;28;20041;-80
2022/06/15 06:24:40;;;;;;;6.72;2.53;;;;;;;12.66;73.28;100771.22;5055089;28;20032;-81
2022/06/15 06:27:07;;;;;;;4.00;2.25;;;;;;;12.72;73.41;100773.25;5068644;28;20040;-80
2022/06/15 06:29:34;;;;;;;4.43;2.58;;;;;;;12.80;73.04;100766.34;5071618;28;20036;-80
2022/06/15 06:32:00;;;;;;;7.50;2.35;;;;;;;12.84;72.67;100757.09;5071603;28;20040;-80
2022/06/15 06:34:29;;;;;;;3.80;2.28;;;;;;;12.94;72.85;100759.69;5053938;28;20033;-80
2022/06/15 06:36:56;;;;;;;7.05;2.67;;;;;;;13.01;72.81;100760.75;5055238;28;20037;-80
2022/06/15 06:39:25;;;;;;;4.15;2.45;;;;;;;13.08;73.02;100763.59;5068549;28;20083;-80
2022/06/15 06:41:51;;;;;;;7.88;2.60;;;;;;;13.16;72.69;100766.34;5035242;28;20447;-80
2022/06/15 06:44:18;;;;;;;3.85;2.33;;;;;;;13.23;72.88;100762.09;5063760;28;20111;-80
2022/06/15 06:46:46;;;;;;;5.25;2.47;;;;;;;13.30;72.57;100766.78;5072034;28;20052;-81
2022/06/15 06:49:14;;;;;;;5.40;2.83;;;;;;;13.39;72.49;100765.84;5052272;28;20127;-81
2022/06/15 06:51:42;;;;;;;7.07;3.33;;;;;;;13.47;72.19;100773.03;5086405;28;20036;-81
2022/06/15 06:54:10;;;;;;;7.63;2.67;;;;;;;13.50;72.15;100772.72;5070609;28;20067;-80
2022/06/15 06:56:36;;;;;;;3.97;2.45;;;;;;;13.56;72.41;100773.94;5055023;28;20128;-81
2022/06/15 06:59:07;;;;;;;7.70;2.70;;;;;;;13.63;72.22;100775.00;5067415;28;20036;-81
2022/06/15 07:01:39;;;;;;;4.85;2.83;;;;;;;13.68;72.17;100778.00;5057474;28;20115;-81
2022/06/15 07:04:05;;;;;;;3.45;2.33;;;;;;;13.69;72.35;100782.34;5049587;28;20456;-81
2022/06/15 07:06:31;;;;;;;3.85;2.15;;;;;;;13.80;72.01;100789.22;5064656;28;20036;-82
2022/06/15 07:08:57;;;;;;;12.27;2.42;;;;;;;13.87;71.51;100789.44;5049944;28;20114;-82
2022/06/15 07:11:23;;;;;;;3.58;1.90;;;;;;;13.89;71.82;100782.13;5083970;28;20032;-81
2022/06/15 07:13:49;;;;;;;8.05;3.03;;;;;;;13.94;71.76;100781.63;5070019;28;20029;-81
2022/06/15 07:16:19;;;;;;;4.68;2.30;;;;;;;13.92;71.61;100776.47;5052996;28;20115;-81
2022/06/15 07:18:46;;;;;;;2.80;2.10;;;;;;;13.95;71.57;100776.16;5077844;28;20051;-81
2022/06/15 07:21:25;;;;;;;4.15;2.60;;;;;;;14.01;71.21;100772.88;5048832;28;20075;-81
2022/06/15 07:23:55;;;;;;;4.57;2.13;;;;;;;14.07;71.22;100773.22;5084535;28;20545;-81
2022/06/15 07:26:36;;;;;;;4.72;2.25;;;;;;;14.18;70.76;100772.13;5067819;28;20032;-81
2022/06/15 07:29:02;;;;;;;4.15;2.10;;;;;;;14.30;70.71;100768.16;5052657;28;20036;-80
2022/06/15 07:31:32;;;;;;;5.60;2.50;;;;;;;14.38;70.46;100768.19;5046469;28;20087;-81
2022/06/15 07:33:59;;;;;;;6.82;2.30;;;;;;;14.49;70.15;100767.06;5069275;28;20040;-81
2022/06/15 07:36:25;;;;;;;12.82;2.70;;;;;;;14.61;69.74;100772.91;5085035;28;20028;-81
2022/06/15 07:38:53;;;;;;;4.88;2.13;;;;;;;14.72;69.41;100771.78;5070181;28;20036;-81
2022/06/15 07:41:19;;;;;;;5.63;2.47;;;;;;;14.82;69.48;100784.13;5067424;28;20480;-81
2022/06/15 07:43:45;;;;;;;3.17;1.80;;;;;;;14.88;68.92;100783.47;5051769;28;20149;-81
2022/06/15 07:46:11;;;;;;;4.95;1.98;;;;;;;14.94;68.89;100782.81;5036412;28;20040;-81
2022/06/15 07:51:38;;;;;;;4.88;2.10;;;;;;;15.12;68.70;100792.47;5071749;28;20035;-81
2022/06/15 07:54:09;;;;;;;4.10;1.80;;;;;;;15.18;68.53;100796.31;5066736;28;20036;-81
2022/06/15 07:56:37;;;;;;;5.00;2.20;;;;;;;15.25;68.39;100795.47;5067780;28;20590;-81
2022/06/15 07:59:03;;;;;;;4.82;1.95;;;;;;;15.37;67.92;100787.13;5080367;28;20040;-81
2022/06/15 08:01:29;;;;;;;3.50;1.88;;;;;;;15.47;67.63;100789.63;5066536;28;20028;-81
2022/06/15 08:03:55;;;;;;;3.63;1.88;;;;;;;15.59;67.57;100800.78;5052115;28;20385;-81
2022/06/15 08:06:22;;;;;;;6.47;2.35;;;;;;;15.68;67.45;100799.75;5050817;28;20547;-82
2022/06/15 08:08:48;;;;;;;5.25;1.85;;;;;;;15.77;67.31;100795.25;5055882;28;20480;-81
2022/06/15 08:11:14;;;;;;;3.33;1.48;;;;;;;15.82;66.70;100794.72;5072729;28;20051;-81
2022/06/15 08:13:41;;;;;;;10.55;1.80;;;;;;;15.89;66.01;100787.72;5071245;28;20127;-81
2022/06/15 08:16:08;;;;;;;3.13;1.50;;;;;;;15.86;65.04;100785.41;5065728;28;20028;-81
2022/06/15 08:18:40;;;;;;;3.35;1.48;;;;;;;15.84;64.82;100787.41;5068429;28;20044;-81
2022/06/15 08:21:28;;;;;;;4.32;1.48;;;;;;;15.87;64.15;100787.91;5034272;28;20032;-81
2022/06/15 08:23:56;;;;;;;3.53;1.30;;;;;;;15.94;63.61;100785.34;5050599;28;20039;-82
2022/06/15 08:26:30;;;;;;;4.22;1.35;;;;;;;16.02;62.88;100784.56;5073540;28;20095;-82
2022/06/15 08:29:02;;;;;;;4.00;1.35;;;;;;;16.16;62.61;100792.81;5071223;28;20040;-82
2022/06/15 08:31:28;;;;;;;5.72;1.23;;;;;;;16.29;62.32;100800.28;5069574;28;20044;-83
2022/06/15 08:33:54;;;;;;;2.45;1.13;;;;;;;16.40;62.02;100799.06;5070414;28;20099;-82
2022/06/15 08:36:20;;;;;;;6.85;1.42;;;;;;;16.51;61.66;100798.66;5051027;28;20032;-82
2022/06/15 08:38:47;;;;;;;4.20;1.80;;;;;;;16.58;61.01;100794.28;5049833;28;20400;-83
2022/06/15 08:41:33;;;;;;;2.63;1.30;;;;;;;16.62;60.46;100802.78;5066558;28;20033;-82
2022/06/15 08:44:20;;;;;;;5.15;1.30;;;;;;;16.58;59.77;100798.81;5047318;28;20041;-82
2022/06/15 08:47:15;;;;;;;2.15;1.20;;;;;;;16.51;58.84;100793.34;5051747;28;20445;-82
2022/06/15 08:49:47;;;;;;;8.20;1.23;;;;;;;16.58;58.88;100799.63;5070845;28;20047;-82
2022/06/15 08:52:23;;;;;;;7.57;1.42;;;;;;;16.61;58.80;100799.25;5066799;28;20036;-82
2022/06/15 08:54:56;;;;;;;4.93;1.10;;;;;;;16.64;58.83;100798.09;5089369;28;20393;-82
2022/06/15 08:57:54;;;;;;;5.32;1.17;;;;;;;16.66;58.13;100801.41;5072114;28;20044;-82
2022/06/15 09:00:34;;;;;;;3.80;1.13;;;;;;;16.69;57.98;100806.38;5049944;28;20436;-82
2022/06/15 09:03:31;;;;;;;3.25;1.00;;;;;;;16.69;57.65;100803.72;5074078;28;20036;-82
2022/06/15 09:06:12;;;;;;;5.20;1.30;;;;;;;16.81;57.89;100797.97;5062576;28;20028;-82
2022/06/15 09:08:51;;;;;;;3.20;1.13;;;;;;;16.95;57.44;100807.91;5060969;28;20052;-82
2022/06/15 09:11:20;;;;;;;2.75;0.75;;;;;;;17.00;56.97;100804.69;5071520;28;20085;-83
2022/06/15 09:14:13;;;;;;;2.75;0.95;;;;;;;17.05;56.13;100809.50;5077381;28;20037;-83
2022/06/15 09:16:39;;;;;;;4.40;0.95;;;;;;;17.09;56.49;100809.00;5070870;28;20035;-83
2022/06/15 09:19:14;;;;;;;3.38;0.90;;;;;;;17.16;55.74;100814.47;5084421;28;20036;-83
2022/06/15 09:22:05;;;;;;;3.10;1.00;;;;;;;17.21;55.26;100797.91;5057724;28;20067;-83
2022/06/15 09:24:48;;;;;;;1.30;0.65;;;;;;;17.27;55.63;100799.00;5050810;28;20143;-83
2022/06/15 09:27:23;;;;;;;4.53;1.38;;;;;;;17.40;55.18;100806.41;5060348;28;20047;-83
2022/06/15 09:30:01;;;;;;;3.58;1.00;;;;;;;17.47;54.92;100805.50;5065736;28;20507;-83
2022/06/15 09:32:32;;;;;;;4.70;1.00;;;;;;;17.57;54.81;100813.28;5052497;28;20048;-83
2022/06/15 09:35:17;;;;;;;4.97;0.95;;;;;;;17.61;54.44;100805.72;5069762;28;20095;-83
2022/06/15 09:37:51;;;;;;;2.58;1.25;;;;;;;17.67;54.39;100809.50;5085913;28;20392;-83
2022/06/15 09:40:18;;;;;;;6.95;1.70;;;;;;;17.76;54.54;100807.59;5070674;28;20028;-83
2022/06/15 09:42:53;;;;;;;5.43;1.23;;;;;;;17.82;54.28;100806.84;5056266;28;20044;-83
2022/06/15 09:45:45;;;;;;;3.17;1.00;;;;;;;17.88;54.31;100806.13;5069923;28;20041;-83
2022/06/15 09:48:16;;;;;;;4.88;1.25;;;;;;;17.94;53.96;100805.38;4991767;28;20052;-84
2022/06/15 09:51:05;;;;;;;3.63;1.38;;;;;;;17.95;53.64;100799.00;5070122;28;20028;-84
2022/06/15 09:53:56;;;;;;;4.45;1.60;;;;;;;18.04;54.19;100794.41;5047166;28;20422;-85
2022/06/15 09:56:23;;;;;;;5.35;1.23;;;;;;;18.06;54.53;100783.53;5059396;28;20047;-84
2022/06/15 09:58:50;;;;;;;3.60;1.00;;;;;;;18.12;54.79;100790.84;5070597;28;20039;-84
2022/06/15 10:01:16;;;;;;;1.65;0.90;;;;;;;18.18;54.71;100797.28;5035645;28;20389;-84
2022/06/15 10:03:46;;;;;;;9.15;1.27;;;;;;;18.29;54.63;100802.16;5028907;28;20033;-84
2022/06/15 10:06:18;;;;;;;4.30;1.20;;;;;;;18.28;54.27;100797.00;5067201;28;20039;-84
2022/06/15 10:08:45;;;;;;;11.10;1.23;;;;;;;18.30;54.57;100792.28;5063323;28;20037;-83
2022/06/15 10:11:42;;;;;;;4.18;1.20;;;;;;;18.30;53.74;100781.59;5043706;28;20043;-83
2022/06/15 10:14:29;;;;;;;4.68;1.50;;;;;;;18.37;53.70;100787.00;5059284;28;20392;-83
2022/06/15 10:16:54;;;;;;;;;;;;;;;18.30;54.13;100789.63;5058388;28;20727;-83
2022/06/15 10:19:23;;;;;;;3.28;1.00;;;;;;;18.47;54.12;100787.53;5068813;28;19916;-84
2022/06/15 10:22:03;;;;;;;5.38;1.45;;;;;;;18.56;53.15;100791.75;5062504;28;20052;-83
2022/06/15 10:24:36;;;;;;;6.90;1.23;;;;;;;18.52;53.58;100786.97;5066141;28;20021;-83
2022/06/15 10:27:20;;;;;;;4.72;1.75;;;;;;;18.55;52.70;100789.28;5053172;28;20496;-84
2022/06/15 10:30:02;;;;;;;4.72;1.35;;;;;;;18.64;52.73;100785.44;5075074;28;20028;-84
2022/06/15 10:32:30;;;;;;;4.35;1.30;;;;;;;18.80;52.47;100796.94;5061194;28;20040;-84
2022/06/15 10:34:56;;;;;;;3.08;1.10;;;;;;;18.90;52.39;100789.44;5040425;28;20033;-84
2022/06/15 10:37:27;;;;;;;4.32;1.27;;;;;;;18.99;52.60;100789.28;5052053;28;20424;-84
2022/06/15 10:39:58;;;;;;;4.63;1.45;;;;;;;19.01;53.06;100792.59;5059217;28;20041;-84
2022/06/15 10:42:37;;;;;;;2.63;1.00;;;;;;;19.14;52.71;100786.56;5067339;28;20047;-85
2022/06/15 10:45:22;;;;;;;2.30;0.82;;;;;;;19.21;51.84;100788.28;5069153;28;20059;-84
2022/06/15 10:48:06;;;;;;;2.40;1.10;;;;;;;19.35;52.18;100796.41;5063615;28;20021;-84
2022/06/15 10:50:42;;;;;;;7.07;1.60;;;;;;;19.46;52.20;100801.25;5051335;28;20032;-84
2022/06/15 10:53:43;;;;;;;7.95;1.42;;;;;;;19.54;50.44;100802.13;5054083;28;20025;-84
2022/06/15 11:02:06;;;;;;;4.18;1.17;;;;;;;19.34;51.33;100808.16;5054209;28;20106;-84
2022/06/15 11:02:29;;;;;;;3.08;1.00;;;;;;;19.38;51.41;100812.13;5049751;28;20028;-85
2022/06/15 11:05:04;;;;;;;5.68;1.02;;;;;;;19.42;51.19;100808.03;5034126;28;20119;-84
2022/06/15 11:07:39;;;;;;;5.45;0.90;;;;;;;19.42;50.75;100802.66;5052569;28;20029;-85
2022/06/15 11:10:11;;;;;;;3.80;1.02;;;;;;;19.54;50.76;100802.13;5059208;28;20024;-84
2022/06/15 11:12:40;;;;;;;3.22;0.75;;;;;;;19.64;50.63;100794.56;5050583;28;20362;-85
2022/06/15 11:18:39;;;;;;;4.63;1.50;;;;;;;19.79;49.62;100799.00;5069560;28;20090;-85
2022/06/15 11:21:23;;;;;;;4.95;1.20;;;;;;;19.84;49.66;100801.91;5034366;28;20131;-85
2022/06/15 11:24:04;;;;;;;4.78;1.70;;;;;;;19.81;49.60;100794.28;5069541;28;20029;-84
2022/06/15 11:29:23;;;;;;;6.50;1.20;;;;;;;20.05;49.40;100792.16;5067998;28;20029;-85
2022/06/15 11:31:51;;;;;;;3.88;0.95;;;;;;;20.03;49.50;100791.50;5062314;28;20052;-84
2022/06/15 11:34:24;;;;;;;3.90;1.10;;;;;;;19.77;49.83;100796.50;5049819;28;20032;-84
2022/06/15 11:37:14;;;;;;;4.50;1.00;;;;;;;19.61;49.67;100792.28;5064125;28;20119;-84
2022/06/15 11:39:46;;;;;;;4.22;1.30;;;;;;;19.49;50.38;100789.31;5067008;28;20032;-84
2022/06/15 11:42:15;;;;;;;2.60;0.88;;;;;;;19.52;50.36;100799.66;5049685;28;20400;-85
2022/06/15 11:44:43;;;;;;;5.25;1.17;;;;;;;19.53;50.18;100797.78;5063074;28;20041;-85
2022/06/15 11:47:42;;;;;;;4.85;1.15;;;;;;;19.50;50.18;100799.00;5063305;28;20056;-84
2022/06/15 11:50:18;;;;;;;3.47;0.85;;;;;;;19.64;50.57;100789.19;5056048;28;20045;-85
2022/06/15 11:53:03;;;;;;;2.33;0.80;;;;;;;19.86;49.71;100799.03;5050066;28;20036;-85
2022/06/15 11:55:28;;;;;;;2.42;0.85;;;;;;;19.79;50.13;100799.81;5068304;28;20029;-84
2022/06/15 11:58:32;;;;;;;4.10;1.05;;;;;;;19.80;49.65;100797.94;5069939;28;20032;-83
2022/06/15 12:01:00;;;;;;;4.43;1.08;;;;;;;19.84;49.80;100800.03;5052778;28;20036;-84
2022/06/15 12:04:02;;;;;;;3.35;1.00;;;;;;;19.93;49.37;100795.38;5085803;28;20048;-84
2022/06/15 12:06:47;;;;;;;3.60;1.00;;;;;;;20.08;49.91;100805.97;5084954;28;20033;-84
2022/06/15 12:09:22;;;;;;;5.72;1.08;;;;;;;20.14;49.77;100796.31;5067334;28;20033;-84